sensor_id;sensor_type;location;lat;lon;timestamp;pressure;altitude;pressure_sealevel;temperature;humidity
22487;BME280;11410;53.046;10.512;2023-11-22T00:01:48;61623.09;;;-141.60;100.00
22487;BME280;11410;53.046;10.512;2023-11-22T00:05:50;61623.09;;;-141.60;100.00
22487;BME280;11410;53.046;10.512;2023-11-22T00:09:53;61623.09;;;-141.60;100.00
22487;BME280;11410;53.046;10.512;2023-11-22T00:13:54;61623.09;;;-141.60;100.00
22487;BME280;11410;53.046;10.512;2023-11-22T00:17:58;61623.09;;;-141.60;100.00
22487;BME280;11410;53.046;10.512;2023-11-22T00:22:05;61623.09;;;-141.60;100.00
22487;BME280;11410;53.046;10.512;2023-11-22T00:26:14;61623.09;;;-141.60;100.00
22487;BME280;11410;53.046;10.512;2023-11-22T00:30:16;61623.09;;;-141.60;100.00
22487;BME280;11410;53.046;10.512;2023-11-22T00:34:18;61623.09;;;-141.60;100.00
22487;BME280;11410;53.046;10.512;2023-11-22T00:38:21;61623.09;;;-141.60;100.00
22487;BME280;11410;53.046;10.512;2023-11-22T00:42:23;61623.09;;;-141.60;100.00
22487;BME280;11410;53.046;10.512;2023-11-22T00:46:25;61623.09;;;-141.60;100.00
22487;BME280;11410;53.046;10.512;2023-11-22T00:50:26;61623.09;;;-141.60;100.00
22487;BME280;11410;53.046;10.512;2023-11-22T00:54:28;101429.72;;;4.48;100.00
22487;BME280;11410;53.046;10.512;2023-11-22T00:58:30;102151.94;;;1.67;100.00
22487;BME280;11410;53.046;10.512;2023-11-22T01:02:32;102159.59;;;1.64;100.00
22487;BME280;11410;53.046;10.512;2023-11-22T01:06:34;102161.22;;;1.68;100.00
22487;BME280;11410;53.046;10.512;2023-11-22T01:10:38;102182.22;;;1.76;100.00
22487;BME280;11410;53.046;10.512;2023-11-22T01:14:39;102188.00;;;1.86;100.00
22487;BME280;11410;53.046;10.512;2023-11-22T01:18:41;102192.88;;;2.00;100.00
22487;BME280;11410;53.046;10.512;2023-11-22T01:22:46;102193.47;;;2.14;100.00
22487;BME280;11410;53.046;10.512;2023-11-22T01:26:48;102205.13;;;2.27;100.00
22487;BME280;11410;53.046;10.512;2023-11-22T01:30:49;102193.06;;;2.40;100.00
22487;BME280;11410;53.046;10.512;2023-11-22T01:34:50;102199.66;;;2.50;100.00
22487;BME280;11410;53.046;10.512;2023-11-22T01:38:52;102197.06;;;2.53;100.00
22487;BME280;11410;53.046;10.512;2023-11-22T01:42:53;102191.03;;;2.60;100.00
22487;BME280;11410;53.046;10.512;2023-11-22T01:46:56;102204.44;;;2.68;100.00
22487;BME280;11410;53.046;10.512;2023-11-22T01:50:57;102198.50;;;2.69;100.00
22487;BME280;11410;53.046;10.512;2023-11-22T01:55:00;102198.38;;;2.75;100.00
22487;BME280;11410;53.046;10.512;2023-11-22T01:59:02;102204.16;;;2.83;100.00
22487;BME280;11410;53.046;10.512;2023-11-22T02:03:05;102203.19;;;2.91;100.00
22487;BME280;11410;53.046;10.512;2023-11-22T02:07:06;102217.44;;;2.98;100.00
22487;BME280;11410;53.046;10.512;2023-11-22T02:11:09;102218.22;;;3.01;100.00
22487;BME280;11410;53.046;10.512;2023-11-22T02:15:10;102208.09;;;3.00;100.00
22487;BME280;11410;53.046;10.512;2023-11-22T02:19:16;102205.56;;;2.98;100.00
22487;BME280;11410;53.046;10.512;2023-11-22T02:23:18;102219.03;;;3.03;100.00
22487;BME280;11410;53.046;10.512;2023-11-22T02:27:20;102230.78;;;3.09;100.00
22487;BME280;11410;53.046;10.512;2023-11-22T02:31:23;102232.50;;;3.07;100.00
22487;BME280;11410;53.046;10.512;2023-11-22T02:35:25;102241.81;;;3.08;100.00
22487;BME280;11410;53.046;10.512;2023-11-22T02:39:32;102246.06;;;3.07;100.00
22487;BME280;11410;53.046;10.512;2023-11-22T02:43:37;102245.28;;;3.04;100.00
22487;BME280;11410;53.046;10.512;2023-11-22T02:47:38;102248.72;;;3.01;100.00
22487;BME280;11410;53.046;10.512;2023-11-22T02:51:40;102246.28;;;2.95;100.00
22487;BME280;11410;53.046;10.512;2023-11-22T02:55:41;102254.81;;;2.91;100.00
22487;BME280;11410;53.046;10.512;2023-11-22T02:59:44;102269.34;;;2.84;100.00
22487;BME280;11410;53.046;10.512;2023-11-22T03:03:46;102254.91;;;2.86;100.00
22487;BME280;11410;53.046;10.512;2023-11-22T03:07:47;102261.72;;;2.84;100.00
22487;BME280;11410;53.046;10.512;2023-11-22T03:11:49;102267.28;;;2.54;100.00
22487;BME280;11410;53.046;10.512;2023-11-22T03:15:50;102268.34;;;2.41;100.00
22487;BME280;11410;53.046;10.512;2023-11-22T03:19:51;102274.44;;;2.29;100.00
22487;BME280;11410;53.046;10.512;2023-11-22T03:23:53;102285.63;;;2.17;100.00
22487;BME280;11410;53.046;10.512;2023-11-22T03:27:54;102284.03;;;2.10;100.00
22487;BME280;11410;53.046;10.512;2023-11-22T03:31:56;102291.00;;;1.96;100.00
22487;BME280;11410;53.046;10.512;2023-11-22T03:35:58;102297.78;;;1.94;100.00
22487;BME280;11410;53.046;10.512;2023-11-22T03:40:00;102292.69;;;1.96;100.00
22487;BME280;11410;53.046;10.512;2023-11-22T03:44:01;102286.00;;;1.90;100.00
22487;BME280;11410;53.046;10.512;2023-11-22T03:48:03;102297.03;;;1.87;100.00
22487;BME280;11410;53.046;10.512;2023-11-22T03:52:04;102297.13;;;1.80;100.00
22487;BME280;11410;53.046;10.512;2023-11-22T03:56:07;102292.22;;;1.68;100.00
22487;BME280;11410;53.046;10.512;2023-11-22T04:00:09;61623.09;;;-141.60;100.00
22487;BME280;11410;53.046;10.512;2023-11-22T04:04:11;61623.09;;;-141.60;100.00
22487;BME280;11410;53.046;10.512;2023-11-22T04:08:13;61623.09;;;-141.60;100.00
22487;BME280;11410;53.046;10.512;2023-11-22T04:12:15;61623.09;;;-141.60;100.00
22487;BME280;11410;53.046;10.512;2023-11-22T04:16:17;61623.09;;;-141.60;100.00
22487;BME280;11410;53.046;10.512;2023-11-22T04:20:19;61623.09;;;-141.60;100.00
22487;BME280;11410;53.046;10.512;2023-11-22T04:24:20;61623.09;;;-141.60;100.00
22487;BME280;11410;53.046;10.512;2023-11-22T04:28:22;61623.09;;;-141.60;100.00
22487;BME280;11410;53.046;10.512;2023-11-22T04:32:24;61623.09;;;-141.60;100.00
22487;BME280;11410;53.046;10.512;2023-11-22T04:36:26;61623.09;;;-141.60;100.00
22487;BME280;11410;53.046;10.512;2023-11-22T04:40:27;61623.09;;;-141.60;100.00
22487;BME280;11410;53.046;10.512;2023-11-22T04:44:29;61623.09;;;-141.60;100.00
22487;BME280;11410;53.046;10.512;2023-11-22T04:48:30;61623.09;;;-141.60;100.00
22487;BME280;11410;53.046;10.512;2023-11-22T04:52:32;61623.09;;;-141.60;100.00
22487;BME280;11410;53.046;10.512;2023-11-22T04:56:34;61623.09;;;-141.60;100.00
22487;BME280;11410;53.046;10.512;2023-11-22T05:00:35;61623.09;;;-141.60;100.00
22487;BME280;11410;53.046;10.512;2023-11-22T05:04:37;61623.09;;;-141.60;100.00
22487;BME280;11410;53.046;10.512;2023-11-22T05:08:39;61623.09;;;-141.60;100.00
22487;BME280;11410;53.046;10.512;2023-11-22T05:12:40;61623.09;;;-141.60;100.00
22487;BME280;11410;53.046;10.512;2023-11-22T05:16:42;61623.09;;;-141.60;100.00
22487;BME280;11410;53.046;10.512;2023-11-22T05:20:43;61623.09;;;-141.60;100.00
22487;BME280;11410;53.046;10.512;2023-11-22T05:24:45;61623.09;;;-141.60;100.00
22487;BME280;11410;53.046;10.512;2023-11-22T05:28:47;61623.09;;;-141.60;100.00
22487;BME280;11410;53.046;10.512;2023-11-22T05:32:49;61623.09;;;-141.60;100.00
22487;BME280;11410;53.046;10.512;2023-11-22T05:36:51;61623.09;;;-141.60;100.00
22487;BME280;11410;53.046;10.512;2023-11-22T05:40:53;102292.22;;;1.68;100.00
22487;BME280;11410;53.046;10.512;2023-11-22T05:44:55;102373.75;;;0.04;100.00
22487;BME280;11410;53.046;10.512;2023-11-22T05:48:56;102383.03;;;0.01;100.00
22487;BME280;11410;53.046;10.512;2023-11-22T05:52:58;102404.09;;;-0.05;100.00
22487;BME280;11410;53.046;10.512;2023-11-22T05:56:59;102416.75;;;-0.08;100.00
22487;BME280;11410;53.046;10.512;2023-11-22T06:01:01;102412.56;;;-0.12;100.00
22487;BME280;11410;53.046;10.512;2023-11-22T06:05:02;102401.63;;;-0.16;100.00
22487;BME280;11410;53.046;10.512;2023-11-22T06:09:05;102419.31;;;-0.22;100.00
22487;BME280;11410;53.046;10.512;2023-11-22T06:13:08;102422.72;;;-0.29;100.00
22487;BME280;11410;53.046;10.512;2023-11-22T06:17:12;102424.41;;;-0.39;100.00
22487;BME280;11410;53.046;10.512;2023-11-22T06:21:14;102426.94;;;-0.31;100.00
22487;BME280;11410;53.046;10.512;2023-11-22T06:25:16;102422.72;;;-0.30;100.00
22487;BME280;11410;53.046;10.512;2023-11-22T06:29:17;102428.59;;;-0.28;100.00
22487;BME280;11410;53.046;10.512;2023-11-22T06:33:19;102422.69;;;-0.18;100.00
22487;BME280;11410;53.046;10.512;2023-11-22T06:37:21;102411.72;;;-0.13;100.00
22487;BME280;11410;53.046;10.512;2023-11-22T06:41:22;102405.81;;;-0.16;100.00
22487;BME280;11410;53.046;10.512;2023-11-22T06:45:24;102420.97;;;-0.13;100.00
22487;BME280;11410;53.046;10.512;2023-11-22T06:49:26;102415.06;;;-0.09;100.00
22487;BME280;11410;53.046;10.512;2023-11-22T06:53:28;102411.69;;;-0.05;100.00
22487;BME280;11410;53.046;10.512;2023-11-22T06:57:30;102383.88;;;0.04;100.00
22487;BME280;11410;53.046;10.512;2023-11-22T07:01:32;102377.09;;;0.12;100.00
22487;BME280;11410;53.046;10.512;2023-11-22T07:05:34;102372.81;;;0.22;100.00
22487;BME280;11410;53.046;10.512;2023-11-22T07:09:35;102379.47;;;0.43;100.00
22487;BME280;11410;53.046;10.512;2023-11-22T07:13:37;102374.22;;;0.69;100.00
22487;BME280;11410;53.046;10.512;2023-11-22T07:17:40;102363.72;;;1.14;100.00
22487;BME280;11410;53.046;10.512;2023-11-22T07:21:43;102369.16;;;1.64;100.00
22487;BME280;11410;53.046;10.512;2023-11-22T07:25:45;102359.28;;;2.13;100.00
22487;BME280;11410;53.046;10.512;2023-11-22T07:29:46;102372.16;;;2.59;100.00
22487;BME280;11410;53.046;10.512;2023-11-22T07:33:48;102379.44;;;2.83;100.00
22487;BME280;11410;53.046;10.512;2023-11-22T07:37:50;102375.13;;;2.88;100.00
22487;BME280;11410;53.046;10.512;2023-11-22T07:41:53;102391.59;;;3.17;100.00
22487;BME280;11410;53.046;10.512;2023-11-22T07:45:56;102373.97;;;3.54;100.00
22487;BME280;11410;53.046;10.512;2023-11-22T07:49:59;102383.47;;;3.91;100.00
22487;BME280;11410;53.046;10.512;2023-11-22T07:54:03;102384.56;;;4.19;100.00
22487;BME280;11410;53.046;10.512;2023-11-22T07:58:05;102386.34;;;4.15;100.00
22487;BME280;11410;53.046;10.512;2023-11-22T08:02:09;102389.91;;;4.07;100.00
22487;BME280;11410;53.046;10.512;2023-11-22T08:06:13;102411.59;;;3.81;100.00
22487;BME280;11410;53.046;10.512;2023-11-22T08:10:15;102427.06;;;3.71;100.00
22487;BME280;11410;53.046;10.512;2023-11-22T08:14:22;102435.75;;;3.61;100.00
22487;BME280;11410;53.046;10.512;2023-11-22T08:18:25;102448.41;;;3.64;100.00
22487;BME280;11410;53.046;10.512;2023-11-22T08:22:29;102456.84;;;3.66;100.00
22487;BME280;11410;53.046;10.512;2023-11-22T08:26:31;102451.56;;;3.76;100.00
22487;BME280;11410;53.046;10.512;2023-11-22T08:30:33;102457.31;;;3.86;100.00
22487;BME280;11410;53.046;10.512;2023-11-22T08:34:36;102450.38;;;3.96;100.00
22487;BME280;11410;53.046;10.512;2023-11-22T08:38:38;102448.47;;;4.07;100.00
22487;BME280;11410;53.046;10.512;2023-11-22T08:42:44;102436.31;;;4.20;100.00
22487;BME280;11410;53.046;10.512;2023-11-22T08:46:46;102419.25;;;4.25;100.00
22487;BME280;11410;53.046;10.512;2023-11-22T08:50:48;102410.88;;;4.20;100.00
22487;BME280;11410;53.046;10.512;2023-11-22T08:54:50;102423.53;;;4.23;100.00
22487;BME280;11410;53.046;10.512;2023-11-22T08:58:53;102432.72;;;4.30;100.00
22487;BME280;11410;53.046;10.512;2023-11-22T09:02:56;102420.84;;;4.30;100.00
22487;BME280;11410;53.046;10.512;2023-11-22T09:06:57;102415.94;;;4.21;100.00
22487;BME280;11410;53.046;10.512;2023-11-22T09:10:59;102418.41;;;4.24;100.00
22487;BME280;11410;53.046;10.512;2023-11-22T09:15:01;102430.19;;;4.30;100.00
22487;BME280;11410;53.046;10.512;2023-11-22T09:19:02;102437.69;;;4.36;100.00
22487;BME280;11410;53.046;10.512;2023-11-22T09:23:04;102459.59;;;4.43;100.00
22487;BME280;11410;53.046;10.512;2023-11-22T09:27:06;102439.09;;;4.49;100.00
22487;BME280;11410;53.046;10.512;2023-11-22T09:31:07;102439.72;;;4.60;100.00
22487;BME280;11410;53.046;10.512;2023-11-22T09:35:09;102413.13;;;4.72;100.00
22487;BME280;11410;53.046;10.512;2023-11-22T09:39:11;102419.81;;;4.76;100.00
22487;BME280;11410;53.046;10.512;2023-11-22T09:43:13;102430.69;;;4.82;100.00
22487;BME280;11410;53.046;10.512;2023-11-22T09:47:19;102411.88;;;4.88;100.00
22487;BME280;11410;53.046;10.512;2023-11-22T09:51:35;102426.97;;;4.97;100.00
22487;BME280;11410;53.046;10.512;2023-11-22T09:55:39;102441.97;;;5.09;100.00
22487;BME280;11410;53.046;10.512;2023-11-22T09:59:44;102450.97;;;5.24;100.00
22487;BME280;11410;53.046;10.512;2023-11-22T10:03:46;61623.09;;;-141.60;85.59
22487;BME280;11410;53.046;10.512;2023-11-22T10:07:48;61623.09;;;-141.60;100.00
22487;BME280;11410;53.046;10.512;2023-11-22T10:11:50;61623.09;;;-141.60;100.00
22487;BME280;11410;53.046;10.512;2023-11-22T10:15:52;61623.09;;;-141.60;100.00
22487;BME280;11410;53.046;10.512;2023-11-22T10:19:54;61623.09;;;-141.60;100.00
22487;BME280;11410;53.046;10.512;2023-11-22T10:23:57;61623.09;;;-141.60;100.00
22487;BME280;11410;53.046;10.512;2023-11-22T10:28:01;61623.09;;;-141.60;100.00
22487;BME280;11410;53.046;10.512;2023-11-22T10:32:03;61623.09;;;-141.60;100.00
22487;BME280;11410;53.046;10.512;2023-11-22T10:36:04;61623.09;;;-141.60;100.00
22487;BME280;11410;53.046;10.512;2023-11-22T10:40:10;61623.09;;;-141.60;100.00
22487;BME280;11410;53.046;10.512;2023-11-22T10:44:15;61623.09;;;-141.60;100.00
22487;BME280;11410;53.046;10.512;2023-11-22T10:48:17;61623.09;;;-141.60;100.00
22487;BME280;11410;53.046;10.512;2023-11-22T10:52:18;61623.09;;;-141.60;100.00
22487;BME280;11410;53.046;10.512;2023-11-22T10:56:22;61623.09;;;-141.60;100.00
22487;BME280;11410;53.046;10.512;2023-11-22T11:00:23;61623.09;;;-141.60;100.00
22487;BME280;11410;53.046;10.512;2023-11-22T11:04:33;61623.09;;;-141.60;100.00
22487;BME280;11410;53.046;10.512;2023-11-22T11:08:37;61623.09;;;-141.60;100.00
22487;BME280;11410;53.046;10.512;2023-11-22T11:12:40;61623.09;;;-141.60;100.00
22487;BME280;11410;53.046;10.512;2023-11-22T11:16:41;61623.09;;;-141.60;100.00
22487;BME280;11410;53.046;10.512;2023-11-22T11:20:49;61623.09;;;-141.60;100.00
22487;BME280;11410;53.046;10.512;2023-11-22T11:24:59;61623.09;;;-141.60;100.00
22487;BME280;11410;53.046;10.512;2023-11-22T11:29:01;61623.09;;;-141.60;100.00
22487;BME280;11410;53.046;10.512;2023-11-22T11:33:06;61623.09;;;-141.60;100.00
22487;BME280;11410;53.046;10.512;2023-11-22T11:37:10;61623.09;;;-141.60;100.00
22487;BME280;11410;53.046;10.512;2023-11-22T11:41:15;61623.09;;;-141.60;100.00
22487;BME280;11410;53.046;10.512;2023-11-22T11:45:16;61623.09;;;-141.60;100.00
22487;BME280;11410;53.046;10.512;2023-11-22T11:49:18;61623.09;;;-141.60;100.00
22487;BME280;11410;53.046;10.512;2023-11-22T11:53:20;61623.09;;;-141.60;100.00
22487;BME280;11410;53.046;10.512;2023-11-22T11:57:22;61623.09;;;-141.60;100.00
22487;BME280;11410;53.046;10.512;2023-11-22T12:01:23;61623.09;;;-141.60;100.00
22487;BME280;11410;53.046;10.512;2023-11-22T12:05:25;61623.09;;;-141.60;100.00
22487;BME280;11410;53.046;10.512;2023-11-22T12:09:29;61623.09;;;-141.60;100.00
22487;BME280;11410;53.046;10.512;2023-11-22T12:13:32;61623.09;;;-141.60;100.00
22487;BME280;11410;53.046;10.512;2023-11-22T12:17:34;61623.09;;;-141.60;100.00
22487;BME280;11410;53.046;10.512;2023-11-22T12:21:35;61623.09;;;-141.60;100.00
22487;BME280;11410;53.046;10.512;2023-11-22T12:25:37;61623.09;;;-141.60;100.00
22487;BME280;11410;53.046;10.512;2023-11-22T12:29:39;61623.09;;;-141.60;100.00
22487;BME280;11410;53.046;10.512;2023-11-22T12:33:43;61623.09;;;-141.60;100.00
22487;BME280;11410;53.046;10.512;2023-11-22T12:37:45;61623.09;;;-141.60;100.00
22487;BME280;11410;53.046;10.512;2023-11-22T12:41:48;61623.09;;;-141.60;100.00
22487;BME280;11410;53.046;10.512;2023-11-22T12:46:07;61623.09;;;-141.60;100.00
22487;BME280;11410;53.046;10.512;2023-11-22T12:50:10;61623.09;;;-141.60;100.00
22487;BME280;11410;53.046;10.512;2023-11-22T12:54:30;61623.09;;;-141.60;100.00
22487;BME280;11410;53.046;10.512;2023-11-22T12:58:33;102453.00;;;5.78;100.00
22487;BME280;11410;53.046;10.512;2023-11-22T13:02:35;102158.88;;;4.18;100.00
22487;BME280;11410;53.046;10.512;2023-11-22T13:06:49;102154.00;;;4.09;100.00
22487;BME280;11410;53.046;10.512;2023-11-22T13:10:52;102150.38;;;4.17;100.00
22487;BME280;11410;53.046;10.512;2023-11-22T13:14:59;102150.31;;;4.21;100.00
22487;BME280;11410;53.046;10.512;2023-11-22T13:19:00;102142.69;;;4.21;100.00
22487;BME280;11410;53.046;10.512;2023-11-22T13:23:04;102140.22;;;4.17;100.00
22487;BME280;11410;53.046;10.512;2023-11-22T13:27:08;102148.66;;;4.20;100.00
22487;BME280;11410;53.046;10.512;2023-11-22T13:31:10;102162.97;;;4.24;100.00
22487;BME280;11410;53.046;10.512;2023-11-22T13:35:13;102183.22;;;4.28;100.00
22487;BME280;11410;53.046;10.512;2023-11-22T13:39:19;102196.38;;;4.11;100.00
22487;BME280;11410;53.046;10.512;2023-11-22T13:43:20;102203.06;;;4.15;100.00
22487;BME280;11410;53.046;10.512;2023-11-22T13:47:22;102221.59;;;4.21;100.00
22487;BME280;11410;53.046;10.512;2023-11-22T13:51:24;102234.34;;;4.21;100.00
22487;BME280;11410;53.046;10.512;2023-11-22T13:55:26;102220.00;;;4.16;100.00
22487;BME280;11410;53.046;10.512;2023-11-22T13:59:29;102227.53;;;4.21;100.00
22487;BME280;11410;53.046;10.512;2023-11-22T14:03:31;102225.75;;;4.25;100.00
22487;BME280;11410;53.046;10.512;2023-11-22T14:07:35;102235.16;;;4.21;100.00
22487;BME280;11410;53.046;10.512;2023-11-22T14:11:37;102229.28;;;4.19;100.00
22487;BME280;11410;53.046;10.512;2023-11-22T14:15:39;102244.63;;;4.16;100.00
22487;BME280;11410;53.046;10.512;2023-11-22T14:19:41;102233.09;;;4.01;100.00
22487;BME280;11410;53.046;10.512;2023-11-22T14:23:53;102207.63;;;4.01;100.00
22487;BME280;11410;53.046;10.512;2023-11-22T14:27:56;102207.63;;;4.01;100.00
22487;BME280;11410;53.046;10.512;2023-11-22T14:32:00;102195.31;;;3.83;100.00
22487;BME280;11410;53.046;10.512;2023-11-22T14:36:01;102189.44;;;3.79;100.00
22487;BME280;11410;53.046;10.512;2023-11-22T14:40:03;102179.25;;;3.81;100.00
22487;BME280;11410;53.046;10.512;2023-11-22T14:44:14;102180.97;;;3.79;100.00
22487;BME280;11410;53.046;10.512;2023-11-22T14:48:16;102174.56;;;3.63;100.00
22487;BME280;11410;53.046;10.512;2023-11-22T14:52:19;102173.97;;;3.51;100.00
22487;BME280;11410;53.046;10.512;2023-11-22T14:56:22;102158.75;;;3.50;100.00
22487;BME280;11410;53.046;10.512;2023-11-22T15:00:24;102160.53;;;3.46;100.00
22487;BME280;11410;53.046;10.512;2023-11-22T15:04:26;102152.06;;;3.46;100.00
22487;BME280;11410;53.046;10.512;2023-11-22T15:08:28;102137.81;;;3.39;100.00
22487;BME280;11410;53.046;10.512;2023-11-22T15:12:29;102128.56;;;3.35;100.00
22487;BME280;11410;53.046;10.512;2023-11-22T15:16:32;102134.06;;;3.15;100.00
22487;BME280;11410;53.046;10.512;2023-11-22T15:20:36;102125.66;;;3.13;100.00
22487;BME280;11410;53.046;10.512;2023-11-22T15:24:39;102129.16;;;3.07;100.00
22487;BME280;11410;53.046;10.512;2023-11-22T15:28:41;102126.66;;;3.06;100.00
22487;BME280;11410;53.046;10.512;2023-11-22T15:32:43;102117.44;;;3.00;100.00
22487;BME280;11410;53.046;10.512;2023-11-22T15:36:45;102113.13;;;3.04;100.00
22487;BME280;11410;53.046;10.512;2023-11-22T15:40:47;102106.31;;;3.06;100.00
22487;BME280;11410;53.046;10.512;2023-11-22T15:44:49;102101.25;;;3.06;100.00
22487;BME280;11410;53.046;10.512;2023-11-22T15:48:53;102099.59;;;3.03;100.00
22487;BME280;11410;53.046;10.512;2023-11-22T15:52:54;102096.22;;;3.03;100.00
22487;BME280;11410;53.046;10.512;2023-11-22T15:56:56;102096.16;;;3.06;100.00
22487;BME280;11410;53.046;10.512;2023-11-22T16:00:57;102103.16;;;2.95;100.00
22487;BME280;11410;53.046;10.512;2023-11-22T16:04:59;102088.13;;;2.85;100.00
22487;BME280;11410;53.046;10.512;2023-11-22T16:09:01;102073.59;;;2.92;100.00
22487;BME280;11410;53.046;10.512;2023-11-22T16:13:03;102058.44;;;2.87;100.00
22487;BME280;11410;53.046;10.512;2023-11-22T16:17:04;102052.44;;;2.90;100.00
22487;BME280;11410;53.046;10.512;2023-11-22T16:21:06;102040.66;;;2.87;100.00
22487;BME280;11410;53.046;10.512;2023-11-22T16:25:09;102040.66;;;2.87;100.00
22487;BME280;11410;53.046;10.512;2023-11-22T16:29:10;61623.09;;;-141.60;100.00
22487;BME280;11410;53.046;10.512;2023-11-22T16:33:15;61623.09;;;-141.60;100.00
22487;BME280;11410;53.046;10.512;2023-11-22T16:37:17;61623.09;;;-141.60;100.00
22487;BME280;11410;53.046;10.512;2023-11-22T16:41:19;61623.09;;;-141.60;100.00
22487;BME280;11410;53.046;10.512;2023-11-22T16:45:24;61623.09;;;-141.60;100.00
22487;BME280;11410;53.046;10.512;2023-11-22T16:49:29;61623.09;;;-141.60;100.00
22487;BME280;11410;53.046;10.512;2023-11-22T16:53:30;61623.09;;;-141.60;100.00
22487;BME280;11410;53.046;10.512;2023-11-22T16:57:32;61623.09;;;-141.60;100.00
22487;BME280;11410;53.046;10.512;2023-11-22T17:01:34;61623.09;;;-141.60;100.00
22487;BME280;11410;53.046;10.512;2023-11-22T17:05:36;61623.09;;;-141.60;100.00
22487;BME280;11410;53.046;10.512;2023-11-22T17:09:39;61623.09;;;-141.60;100.00
22487;BME280;11410;53.046;10.512;2023-11-22T17:13:40;61623.09;;;-141.60;100.00
22487;BME280;11410;53.046;10.512;2023-11-22T17:17:43;61623.09;;;-141.60;100.00
22487;BME280;11410;53.046;10.512;2023-11-22T17:21:45;61623.09;;;-141.60;100.00
22487;BME280;11410;53.046;10.512;2023-11-22T17:25:47;61623.09;;;-141.60;100.00
22487;BME280;11410;53.046;10.512;2023-11-22T17:29:49;61623.09;;;-141.60;100.00
22487;BME280;11410;53.046;10.512;2023-11-22T17:33:52;61623.09;;;-141.60;100.00
22487;BME280;11410;53.046;10.512;2023-11-22T17:37:55;61623.09;;;-141.60;100.00
22487;BME280;11410;53.046;10.512;2023-11-22T17:41:59;61623.09;;;-141.60;100.00
22487;BME280;11410;53.046;10.512;2023-11-22T17:46:01;61623.09;;;-141.60;100.00
22487;BME280;11410;53.046;10.512;2023-11-22T17:50:03;61623.09;;;-141.60;100.00
22487;BME280;11410;53.046;10.512;2023-11-22T17:54:06;61623.09;;;-141.60;100.00
22487;BME280;11410;53.046;10.512;2023-11-22T17:58:09;61623.09;;;-141.60;100.00
22487;BME280;11410;53.046;10.512;2023-11-22T18:02:10;61623.09;;;-141.60;100.00
22487;BME280;11410;53.046;10.512;2023-11-22T18:06:11;61623.09;;;-141.60;100.00
22487;BME280;11410;53.046;10.512;2023-11-22T18:10:16;61623.09;;;-141.60;100.00
22487;BME280;11410;53.046;10.512;2023-11-22T18:14:21;61623.09;;;-141.60;100.00
22487;BME280;11410;53.046;10.512;2023-11-22T18:18:23;61623.09;;;-141.60;100.00
22487;BME280;11410;53.046;10.512;2023-11-22T18:22:24;61623.09;;;-141.60;100.00
22487;BME280;11410;53.046;10.512;2023-11-22T18:26:26;61623.09;;;-141.60;100.00
22487;BME280;11410;53.046;10.512;2023-11-22T18:30:28;61623.09;;;-141.60;100.00
22487;BME280;11410;53.046;10.512;2023-11-22T18:34:29;61623.09;;;-141.60;100.00
22487;BME280;11410;53.046;10.512;2023-11-22T18:38:34;61623.09;;;-141.60;100.00
22487;BME280;11410;53.046;10.512;2023-11-22T18:42:36;61623.09;;;-141.60;100.00
22487;BME280;11410;53.046;10.512;2023-11-22T18:46:38;61623.09;;;-141.60;100.00
22487;BME280;11410;53.046;10.512;2023-11-22T18:50:39;61623.09;;;-141.60;100.00
22487;BME280;11410;53.046;10.512;2023-11-22T18:54:41;61623.09;;;-141.60;100.00
22487;BME280;11410;53.046;10.512;2023-11-22T18:58:43;61623.09;;;-141.60;100.00
22487;BME280;11410;53.046;10.512;2023-11-22T19:02:45;61623.09;;;-141.60;100.00
22487;BME280;11410;53.046;10.512;2023-11-22T19:06:47;61623.09;;;-141.60;100.00
22487;BME280;11410;53.046;10.512;2023-11-22T19:10:48;61623.09;;;-141.60;100.00
22487;BME280;11410;53.046;10.512;2023-11-22T19:14:50;61623.09;;;-141.60;100.00
22487;BME280;11410;53.046;10.512;2023-11-22T19:18:51;61623.09;;;-141.60;100.00
22487;BME280;11410;53.046;10.512;2023-11-22T19:22:53;61623.09;;;-141.60;100.00
22487;BME280;11410;53.046;10.512;2023-11-22T19:26:55;61623.09;;;-141.60;100.00
22487;BME280;11410;53.046;10.512;2023-11-22T19:30:57;61623.09;;;-141.60;100.00
22487;BME280;11410;53.046;10.512;2023-11-22T19:34:59;61623.09;;;-141.60;100.00
22487;BME280;11410;53.046;10.512;2023-11-22T19:39:03;61623.09;;;-141.60;100.00
22487;BME280;11410;53.046;10.512;2023-11-22T19:43:09;61623.09;;;-141.60;100.00
22487;BME280;11410;53.046;10.512;2023-11-22T19:47:11;61623.09;;;-141.60;100.00
22487;BME280;11410;53.046;10.512;2023-11-22T19:51:13;61623.09;;;-141.60;100.00
22487;BME280;11410;53.046;10.512;2023-11-22T19:55:15;61623.09;;;-141.60;100.00
22487;BME280;11410;53.046;10.512;2023-11-22T19:59:16;61623.09;;;-141.60;100.00
22487;BME280;11410;53.046;10.512;2023-11-22T20:03:18;61623.09;;;-141.60;100.00
22487;BME280;11410;53.046;10.512;2023-11-22T20:07:20;61623.09;;;-141.60;100.00
22487;BME280;11410;53.046;10.512;2023-11-22T20:11:21;61623.09;;;-141.60;100.00
22487;BME280;11410;53.046;10.512;2023-11-22T20:15:23;61623.09;;;-141.60;100.00
22487;BME280;11410;53.046;10.512;2023-11-22T20:19:25;61623.09;;;-141.60;100.00
22487;BME280;11410;53.046;10.512;2023-11-22T20:23:26;61623.09;;;-141.60;100.00
22487;BME280;11410;53.046;10.512;2023-11-22T20:27:29;61623.09;;;-141.60;100.00
22487;BME280;11410;53.046;10.512;2023-11-22T20:31:31;61623.09;;;-141.60;100.00
22487;BME280;11410;53.046;10.512;2023-11-22T20:35:32;61623.09;;;-141.60;100.00